sensor_id;sensor_type;location;lat;lon;timestamp;P1;durP1;ratioP1;P2;durP2;ratioP2
50689;SDS011;71367;48.298;11.238;2023-12-29T00:00:59;5.10;;;3.00;;
50689;SDS011;71367;48.298;11.238;2023-12-29T00:16:14;3.97;;;2.70;;
50689;SDS011;71367;48.298;11.238;2023-12-29T00:31:28;4.40;;;2.40;;
50689;SDS011;71367;48.298;11.238;2023-12-29T00:46:38;4.53;;;2.20;;
50689;SDS011;71367;48.298;11.238;2023-12-29T01:01:48;3.92;;;2.17;;
50689;SDS011;71367;48.298;11.238;2023-12-29T01:16:58;4.88;;;1.88;;
50689;SDS011;71367;48.298;11.238;2023-12-29T01:32:20;4.00;;;1.90;;
50689;SDS011;71367;48.298;11.238;2023-12-29T02:18:27;5.38;;;2.70;;
50689;SDS011;71367;48.298;11.238;2023-12-29T02:33:41;5.68;;;3.15;;
50689;SDS011;71367;48.298;11.238;2023-12-29T02:48:49;6.25;;;3.17;;
50689;SDS011;71367;48.298;11.238;2023-12-29T03:03:56;7.32;;;3.47;;
50689;SDS011;71367;48.298;11.238;2023-12-29T03:19:05;9.50;;;3.67;;
50689;SDS011;71367;48.298;11.238;2023-12-29T03:34:11;4.82;;;2.95;;
50689;SDS011;71367;48.298;11.238;2023-12-29T03:49:17;6.55;;;2.92;;
50689;SDS011;71367;48.298;11.238;2023-12-29T04:04:21;5.15;;;2.90;;
50689;SDS011;71367;48.298;11.238;2023-12-29T04:19:27;5.95;;;3.08;;
50689;SDS011;71367;48.298;11.238;2023-12-29T04:34:32;5.07;;;2.55;;
50689;SDS011;71367;48.298;11.238;2023-12-29T04:49:39;5.68;;;2.75;;
50689;SDS011;71367;48.298;11.238;2023-12-29T05:04:44;6.45;;;3.05;;
50689;SDS011;71367;48.298;11.238;2023-12-29T05:19:48;4.47;;;2.55;;
50689;SDS011;71367;48.298;11.238;2023-12-29T05:34:52;4.85;;;2.60;;
50689;SDS011;71367;48.298;11.238;2023-12-29T05:49:56;4.97;;;2.78;;
50689;SDS011;71367;48.298;11.238;2023-12-29T06:04:59;6.00;;;3.03;;
50689;SDS011;71367;48.298;11.238;2023-12-29T06:20:03;5.00;;;3.25;;
50689;SDS011;71367;48.298;11.238;2023-12-29T06:35:09;8.93;;;3.35;;
50689;SDS011;71367;48.298;11.238;2023-12-29T06:50:13;4.97;;;2.80;;
50689;SDS011;71367;48.298;11.238;2023-12-29T07:05:16;3.95;;;2.65;;
50689;SDS011;71367;48.298;11.238;2023-12-29T07:20:21;4.72;;;2.58;;
50689;SDS011;71367;48.298;11.238;2023-12-29T07:35:25;4.72;;;2.55;;
50689;SDS011;71367;48.298;11.238;2023-12-29T07:50:29;4.25;;;2.67;;
50689;SDS011;71367;48.298;11.238;2023-12-29T08:05:34;5.55;;;2.63;;
50689;SDS011;71367;48.298;11.238;2023-12-29T08:20:38;5.82;;;3.00;;
50689;SDS011;71367;48.298;11.238;2023-12-29T08:35:42;4.60;;;2.95;;
50689;SDS011;71367;48.298;11.238;2023-12-29T08:50:47;4.45;;;3.03;;
50689;SDS011;71367;48.298;11.238;2023-12-29T09:05:52;6.68;;;3.45;;
50689;SDS011;71367;48.298;11.238;2023-12-29T09:20:56;5.47;;;2.60;;
50689;SDS011;71367;48.298;11.238;2023-12-29T09:36:00;3.78;;;2.30;;
50689;SDS011;71367;48.298;11.238;2023-12-29T09:51:05;3.85;;;2.20;;
50689;SDS011;71367;48.298;11.238;2023-12-29T10:06:11;3.30;;;2.13;;
50689;SDS011;71367;48.298;11.238;2023-12-29T10:21:20;4.20;;;2.05;;
50689;SDS011;71367;48.298;11.238;2023-12-29T10:36:30;4.65;;;2.00;;
50689;SDS011;71367;48.298;11.238;2023-12-29T10:51:51;3.00;;;1.90;;
50689;SDS011;71367;48.298;11.238;2023-12-29T11:06:58;3.88;;;1.67;;
50689;SDS011;71367;48.298;11.238;2023-12-29T11:22:02;2.67;;;2.00;;
50689;SDS011;71367;48.298;11.238;2023-12-29T11:37:09;4.07;;;2.40;;
50689;SDS011;71367;48.298;11.238;2023-12-29T12:08:45;3.80;;;2.13;;
50689;SDS011;71367;48.298;11.238;2023-12-29T12:23:50;5.15;;;2.60;;
50689;SDS011;71367;48.298;11.238;2023-12-29T12:38:57;3.25;;;1.98;;
50689;SDS011;71367;48.298;11.238;2023-12-29T12:54:06;3.63;;;2.17;;
50689;SDS011;71367;48.298;11.238;2023-12-29T13:09:11;3.10;;;2.03;;
50689;SDS011;71367;48.298;11.238;2023-12-29T13:24:21;4.90;;;1.90;;
50689;SDS011;71367;48.298;11.238;2023-12-29T13:39:26;2.83;;;1.63;;
50689;SDS011;71367;48.298;11.238;2023-12-29T13:54:41;2.60;;;1.63;;
50689;SDS011;71367;48.298;11.238;2023-12-29T14:09:45;3.75;;;1.60;;
50689;SDS011;71367;48.298;11.238;2023-12-29T14:24:58;2.42;;;1.60;;
50689;SDS011;71367;48.298;11.238;2023-12-29T14:40:05;2.33;;;1.48;;
50689;SDS011;71367;48.298;11.238;2023-12-29T14:55:13;4.03;;;1.70;;
50689;SDS011;71367;48.298;11.238;2023-12-29T15:10:17;2.53;;;1.63;;
50689;SDS011;71367;48.298;11.238;2023-12-29T15:25:21;3.63;;;1.70;;
50689;SDS011;71367;48.298;11.238;2023-12-29T15:40:25;3.20;;;1.90;;
50689;SDS011;71367;48.298;11.238;2023-12-29T15:55:29;3.88;;;2.00;;
50689;SDS011;71367;48.298;11.238;2023-12-29T16:10:32;4.40;;;2.22;;
50689;SDS011;71367;48.298;11.238;2023-12-29T16:25:36;3.17;;;2.05;;
50689;SDS011;71367;48.298;11.238;2023-12-29T16:40:41;4.80;;;2.25;;
50689;SDS011;71367;48.298;11.238;2023-12-29T16:55:47;4.18;;;2.40;;
50689;SDS011;71367;48.298;11.238;2023-12-29T17:10:51;5.07;;;2.58;;
50689;SDS011;71367;48.298;11.238;2023-12-29T17:25:55;3.80;;;2.20;;
50689;SDS011;71367;48.298;11.238;2023-12-29T17:41:01;4.10;;;2.70;;
50689;SDS011;71367;48.298;11.238;2023-12-29T17:56:06;6.88;;;3.60;;
50689;SDS011;71367;48.298;11.238;2023-12-29T18:11:10;3.72;;;2.40;;
50689;SDS011;71367;48.298;11.238;2023-12-29T18:26:14;4.65;;;2.35;;
50689;SDS011;71367;48.298;11.238;2023-12-29T18:41:21;4.45;;;3.03;;
50689;SDS011;71367;48.298;11.238;2023-12-29T18:56:27;4.82;;;2.22;;
50689;SDS011;71367;48.298;11.238;2023-12-29T19:11:35;6.57;;;2.70;;
50689;SDS011;71367;48.298;11.238;2023-12-29T19:26:41;4.80;;;2.75;;
50689;SDS011;71367;48.298;11.238;2023-12-29T19:41:46;5.05;;;2.60;;
50689;SDS011;71367;48.298;11.238;2023-12-29T19:56:52;4.68;;;2.17;;
50689;SDS011;71367;48.298;11.238;2023-12-29T20:11:56;7.10;;;2.10;;
50689;SDS011;71367;48.298;11.238;2023-12-29T20:27:03;2.78;;;1.63;;
50689;SDS011;71367;48.298;11.238;2023-12-29T20:42:07;2.25;;;1.60;;
50689;SDS011;71367;48.298;11.238;2023-12-29T20:57:14;3.17;;;1.75;;
50689;SDS011;71367;48.298;11.238;2023-12-29T21:12:21;2.65;;;1.40;;
50689;SDS011;71367;48.298;11.238;2023-12-29T21:27:25;3.05;;;1.60;;
50689;SDS011;71367;48.298;11.238;2023-12-29T21:42:34;1.98;;;1.30;;
50689;SDS011;71367;48.298;11.238;2023-12-29T21:57:40;1.92;;;1.27;;
50689;SDS011;71367;48.298;11.238;2023-12-29T22:12:44;2.28;;;1.50;;
50689;SDS011;71367;48.298;11.238;2023-12-29T22:27:57;3.03;;;1.70;;
50689;SDS011;71367;48.298;11.238;2023-12-29T22:43:01;2.35;;;1.38;;
50689;SDS011;71367;48.298;11.238;2023-12-29T22:58:08;4.05;;;1.85;;
50689;SDS011;71367;48.298;11.238;2023-12-29T23:13:16;3.70;;;1.92;;
50689;SDS011;71367;48.298;11.238;2023-12-29T23:28:22;4.13;;;1.92;;
50689;SDS011;71367;48.298;11.238;2023-12-29T23:43:26;3.08;;;1.90;;
50689;SDS011;71367;48.298;11.238;2023-12-29T23:58:32;3.30;;;1.90;;
